sensor_id;sensor_type;location;lat;lon;timestamp;temperature;humidity
3017;DHT22;1518;52.408;13.060;2023-02-28T00:01:32;18.30;55.00
3017;DHT22;1518;52.408;13.060;2023-02-28T00:04:20;18.30;55.00
3017;DHT22;1518;52.408;13.060;2023-02-28T00:07:08;18.20;55.00
3017;DHT22;1518;52.408;13.060;2023-02-28T00:09:56;18.20;55.10
3017;DHT22;1518;52.408;13.060;2023-02-28T00:12:44;18.10;55.00
3017;DHT22;1518;52.408;13.060;2023-02-28T00:15:33;18.00;55.10
3017;DHT22;1518;52.408;13.060;2023-02-28T00:18:22;18.00;55.30
3017;DHT22;1518;52.408;13.060;2023-02-28T00:21:10;17.90;55.50
3017;DHT22;1518;52.408;13.060;2023-02-28T00:23:59;17.90;55.50
3017;DHT22;1518;52.408;13.060;2023-02-28T00:26:47;17.90;55.60
3017;DHT22;1518;52.408;13.060;2023-02-28T00:29:35;18.00;55.60
3017;DHT22;1518;52.408;13.060;2023-02-28T00:32:23;18.10;55.70
3017;DHT22;1518;52.408;13.060;2023-02-28T00:35:13;18.10;55.60
3017;DHT22;1518;52.408;13.060;2023-02-28T00:38:01;18.20;55.60
3017;DHT22;1518;52.408;13.060;2023-02-28T00:40:49;18.20;55.40
3017;DHT22;1518;52.408;13.060;2023-02-28T00:43:38;18.30;55.30
3017;DHT22;1518;52.408;13.060;2023-02-28T00:46:27;18.30;55.90
3017;DHT22;1518;52.408;13.060;2023-02-28T00:49:15;18.30;55.20
3017;DHT22;1518;52.408;13.060;2023-02-28T00:52:04;18.30;55.20
3017;DHT22;1518;52.408;13.060;2023-02-28T00:54:52;18.30;55.20
3017;DHT22;1518;52.408;13.060;2023-02-28T00:57:40;18.30;55.30
3017;DHT22;1518;52.408;13.060;2023-02-28T01:00:28;18.30;55.30
3017;DHT22;1518;52.408;13.060;2023-02-28T01:03:17;18.30;55.30
3017;DHT22;1518;52.408;13.060;2023-02-28T01:06:06;18.20;55.10
3017;DHT22;1518;52.408;13.060;2023-02-28T01:08:56;18.00;74.60
3017;DHT22;1518;52.408;13.060;2023-02-28T01:11:44;18.10;55.20
3017;DHT22;1518;52.408;13.060;2023-02-28T01:14:32;18.10;55.20
3017;DHT22;1518;52.408;13.060;2023-02-28T01:17:20;18.10;55.30
3017;DHT22;1518;52.408;13.060;2023-02-28T01:20:09;18.00;55.40
3017;DHT22;1518;52.408;13.060;2023-02-28T01:22:57;18.00;55.60
3017;DHT22;1518;52.408;13.060;2023-02-28T01:25:47;18.00;55.70
3017;DHT22;1518;52.408;13.060;2023-02-28T01:28:35;18.00;55.80
3017;DHT22;1518;52.408;13.060;2023-02-28T01:31:23;18.00;55.70
3017;DHT22;1518;52.408;13.060;2023-02-28T01:34:12;18.10;55.70
3017;DHT22;1518;52.408;13.060;2023-02-28T01:37:00;18.20;55.70
3017;DHT22;1518;52.408;13.060;2023-02-28T01:39:48;18.20;55.60
3017;DHT22;1518;52.408;13.060;2023-02-28T01:42:38;18.20;55.50
3017;DHT22;1518;52.408;13.060;2023-02-28T01:45:27;18.20;55.50
3017;DHT22;1518;52.408;13.060;2023-02-28T01:48:16;18.30;55.50
3017;DHT22;1518;52.408;13.060;2023-02-28T01:51:08;18.30;55.40
3017;DHT22;1518;52.408;13.060;2023-02-28T01:54:00;18.30;56.00
3017;DHT22;1518;52.408;13.060;2023-02-28T01:56:53;18.30;55.40
3017;DHT22;1518;52.408;13.060;2023-02-28T01:59:46;18.30;55.40
3017;DHT22;1518;52.408;13.060;2023-02-28T02:02:37;18.20;55.30
3017;DHT22;1518;52.408;13.060;2023-02-28T02:05:26;18.20;55.20
3017;DHT22;1518;52.408;13.060;2023-02-28T02:08:20;18.20;55.40
3017;DHT22;1518;52.408;13.060;2023-02-28T02:11:11;18.30;55.30
3017;DHT22;1518;52.408;13.060;2023-02-28T02:17:23;18.10;55.30
3017;DHT22;1518;52.408;13.060;2023-02-28T02:23:54;18.00;55.60
3017;DHT22;1518;52.408;13.060;2023-02-28T02:26:59;18.00;55.70
3017;DHT22;1518;52.408;13.060;2023-02-28T02:30:12;18.00;55.70
3017;DHT22;1518;52.408;13.060;2023-02-28T02:33:15;18.00;55.70
3017;DHT22;1518;52.408;13.060;2023-02-28T02:36:11;18.10;55.70
3017;DHT22;1518;52.408;13.060;2023-02-28T02:39:06;18.20;75.10
3017;DHT22;1518;52.408;13.060;2023-02-28T02:42:01;18.10;55.70
3017;DHT22;1518;52.408;13.060;2023-02-28T02:44:57;18.10;55.60
3017;DHT22;1518;52.408;13.060;2023-02-28T02:47:46;18.10;55.60
3017;DHT22;1518;52.408;13.060;2023-02-28T02:50:37;18.20;55.60
3017;DHT22;1518;52.408;13.060;2023-02-28T02:53:32;18.20;55.50
3017;DHT22;1518;52.408;13.060;2023-02-28T02:56:23;18.20;55.40
3017;DHT22;1518;52.408;13.060;2023-02-28T02:59:15;18.20;55.40
3017;DHT22;1518;52.408;13.060;2023-02-28T03:02:11;18.20;55.40
3017;DHT22;1518;52.408;13.060;2023-02-28T03:05:02;18.20;55.40
3017;DHT22;1518;52.408;13.060;2023-02-28T03:07:52;18.20;55.40
3017;DHT22;1518;52.408;13.060;2023-02-28T03:10:42;18.10;55.50
3017;DHT22;1518;52.408;13.060;2023-02-28T03:13:43;18.10;55.60
3017;DHT22;1518;52.408;13.060;2023-02-28T03:16:46;17.90;55.50
3017;DHT22;1518;52.408;13.060;2023-02-28T03:19:55;17.90;55.60
3017;DHT22;1518;52.408;13.060;2023-02-28T03:22:49;17.90;55.70
3017;DHT22;1518;52.408;13.060;2023-02-28T03:25:47;17.90;55.80
3017;DHT22;1518;52.408;13.060;2023-02-28T03:28:43;18.00;55.90
3017;DHT22;1518;52.408;13.060;2023-02-28T03:31:38;18.00;55.70
3017;DHT22;1518;52.408;13.060;2023-02-28T03:34:29;18.00;55.50
3017;DHT22;1518;52.408;13.060;2023-02-28T03:37:21;18.10;55.60
3017;DHT22;1518;52.408;13.060;2023-02-28T03:40:13;18.20;55.50
3017;DHT22;1518;52.408;13.060;2023-02-28T03:43:07;18.20;55.40
3017;DHT22;1518;52.408;13.060;2023-02-28T03:45:58;18.20;55.30
3017;DHT22;1518;52.408;13.060;2023-02-28T03:48:52;18.20;69.30
3017;DHT22;1518;52.408;13.060;2023-02-28T03:51:42;18.20;55.30
3017;DHT22;1518;52.408;13.060;2023-02-28T03:54:32;18.20;55.30
3017;DHT22;1518;52.408;13.060;2023-02-28T03:57:26;18.20;55.20
3017;DHT22;1518;52.408;13.060;2023-02-28T04:00:19;18.10;55.20
3017;DHT22;1518;52.408;13.060;2023-02-28T04:03:08;18.10;55.20
3017;DHT22;1518;52.408;13.060;2023-02-28T04:05:57;18.10;55.30
3017;DHT22;1518;52.408;13.060;2023-02-28T04:08:46;18.00;69.70
3017;DHT22;1518;52.408;13.060;2023-02-28T04:11:36;17.90;55.50
3017;DHT22;1518;52.408;13.060;2023-02-28T04:14:24;17.90;55.50
3017;DHT22;1518;52.408;13.060;2023-02-28T04:17:14;17.90;55.60
3017;DHT22;1518;52.408;13.060;2023-02-28T04:20:03;18.00;55.60
3017;DHT22;1518;52.408;13.060;2023-02-28T04:22:56;18.00;55.50
3017;DHT22;1518;52.408;13.060;2023-02-28T04:25:44;18.00;55.50
3017;DHT22;1518;52.408;13.060;2023-02-28T04:28:32;18.00;55.50
3017;DHT22;1518;52.408;13.060;2023-02-28T04:31:20;18.10;55.60
3017;DHT22;1518;52.408;13.060;2023-02-28T04:34:10;18.10;55.50
3017;DHT22;1518;52.408;13.060;2023-02-28T04:36:58;18.00;55.40
3017;DHT22;1518;52.408;13.060;2023-02-28T04:40:03;18.10;55.40
3017;DHT22;1518;52.408;13.060;2023-02-28T04:42:51;18.10;55.20
3017;DHT22;1518;52.408;13.060;2023-02-28T04:45:39;18.10;55.20
3017;DHT22;1518;52.408;13.060;2023-02-28T04:48:29;18.10;55.20
3017;DHT22;1518;52.408;13.060;2023-02-28T04:51:18;18.10;55.20
3017;DHT22;1518;52.408;13.060;2023-02-28T04:54:07;18.10;55.10
3017;DHT22;1518;52.408;13.060;2023-02-28T04:56:55;18.10;55.10
3017;DHT22;1518;52.408;13.060;2023-02-28T04:59:44;18.10;55.10
3017;DHT22;1518;52.408;13.060;2023-02-28T05:02:34;18.10;55.00
3017;DHT22;1518;52.408;13.060;2023-02-28T05:05:22;18.00;55.00
3017;DHT22;1518;52.408;13.060;2023-02-28T05:08:11;18.00;55.00
3017;DHT22;1518;52.408;13.060;2023-02-28T05:10:59;17.90;55.10
3017;DHT22;1518;52.408;13.060;2023-02-28T05:13:49;17.90;55.20
3017;DHT22;1518;52.408;13.060;2023-02-28T05:16:37;17.90;55.30
3017;DHT22;1518;52.408;13.060;2023-02-28T05:19:26;17.80;55.40
3017;DHT22;1518;52.408;13.060;2023-02-28T05:22:14;17.80;55.60
3017;DHT22;1518;52.408;13.060;2023-02-28T05:25:05;17.90;55.50
3017;DHT22;1518;52.408;13.060;2023-02-28T05:27:53;17.90;56.10
3017;DHT22;1518;52.408;13.060;2023-02-28T05:30:41;17.90;55.40
3017;DHT22;1518;52.408;13.060;2023-02-28T05:33:29;18.00;55.40
3017;DHT22;1518;52.408;13.060;2023-02-28T05:36:18;18.00;55.30
3017;DHT22;1518;52.408;13.060;2023-02-28T05:42:00;18.10;54.80
3017;DHT22;1518;52.408;13.060;2023-02-28T05:44:48;18.20;55.20
3017;DHT22;1518;52.408;13.060;2023-02-28T05:47:36;18.20;55.00
3017;DHT22;1518;52.408;13.060;2023-02-28T05:50:24;18.20;54.90
3017;DHT22;1518;52.408;13.060;2023-02-28T05:53:12;18.20;55.00
3017;DHT22;1518;52.408;13.060;2023-02-28T05:56:00;18.10;54.90
3017;DHT22;1518;52.408;13.060;2023-02-28T05:58:50;18.10;54.90
3017;DHT22;1518;52.408;13.060;2023-02-28T06:01:40;18.10;54.90
3017;DHT22;1518;52.408;13.060;2023-02-28T06:04:28;18.00;54.90
3017;DHT22;1518;52.408;13.060;2023-02-28T06:07:18;18.00;54.90
3017;DHT22;1518;52.408;13.060;2023-02-28T06:10:07;18.00;55.50
3017;DHT22;1518;52.408;13.060;2023-02-28T06:12:55;17.90;54.90
3017;DHT22;1518;52.408;13.060;2023-02-28T06:15:44;17.90;55.10
3017;DHT22;1518;52.408;13.060;2023-02-28T06:18:32;17.80;55.20
3017;DHT22;1518;52.408;13.060;2023-02-28T06:21:21;17.70;55.20
3017;DHT22;1518;52.408;13.060;2023-02-28T06:24:09;17.60;55.20
3017;DHT22;1518;52.408;13.060;2023-02-28T06:26:58;17.50;55.40
3017;DHT22;1518;52.408;13.060;2023-02-28T06:29:53;17.60;55.50
3017;DHT22;1518;52.408;13.060;2023-02-28T06:32:43;17.60;55.60
3017;DHT22;1518;52.408;13.060;2023-02-28T06:35:31;17.70;56.20
3017;DHT22;1518;52.408;13.060;2023-02-28T06:38:19;17.80;55.40
3017;DHT22;1518;52.408;13.060;2023-02-28T06:41:08;17.90;55.30
3017;DHT22;1518;52.408;13.060;2023-02-28T06:43:56;18.00;55.30
3017;DHT22;1518;52.408;13.060;2023-02-28T06:46:45;18.00;55.30
3017;DHT22;1518;52.408;13.060;2023-02-28T06:49:35;18.10;55.20
3017;DHT22;1518;52.408;13.060;2023-02-28T06:52:24;18.00;55.00
3017;DHT22;1518;52.408;13.060;2023-02-28T06:55:12;18.10;55.00
3017;DHT22;1518;52.408;13.060;2023-02-28T06:58:00;18.10;55.00
3017;DHT22;1518;52.408;13.060;2023-02-28T07:00:50;18.10;54.90
3017;DHT22;1518;52.408;13.060;2023-02-28T07:03:38;18.10;55.00
3017;DHT22;1518;52.408;13.060;2023-02-28T07:06:28;18.10;55.20
3017;DHT22;1518;52.408;13.060;2023-02-28T07:09:16;18.00;74.50
3017;DHT22;1518;52.408;13.060;2023-02-28T07:12:06;18.00;55.30
3017;DHT22;1518;52.408;13.060;2023-02-28T07:14:54;18.10;55.50
3017;DHT22;1518;52.408;13.060;2023-02-28T07:17:43;18.10;55.40
3017;DHT22;1518;52.408;13.060;2023-02-28T07:20:31;18.10;55.40
3017;DHT22;1518;52.408;13.060;2023-02-28T07:23:21;18.20;55.50
3017;DHT22;1518;52.408;13.060;2023-02-28T07:26:12;18.30;55.40
3017;DHT22;1518;52.408;13.060;2023-02-28T07:29:01;18.50;55.40
3017;DHT22;1518;52.408;13.060;2023-02-28T07:31:50;18.60;55.30
3017;DHT22;1518;52.408;13.060;2023-02-28T07:34:40;18.70;55.20
3017;DHT22;1518;52.408;13.060;2023-02-28T07:37:28;18.90;55.30
3017;DHT22;1518;52.408;13.060;2023-02-28T07:40:19;18.90;55.00
3017;DHT22;1518;52.408;13.060;2023-02-28T07:43:08;19.00;55.20
3017;DHT22;1518;52.408;13.060;2023-02-28T07:46:00;19.10;55.20
3017;DHT22;1518;52.408;13.060;2023-02-28T07:48:48;19.20;55.10
3017;DHT22;1518;52.408;13.060;2023-02-28T07:51:36;19.30;55.00
3017;DHT22;1518;52.408;13.060;2023-02-28T07:54:24;19.40;54.90
3017;DHT22;1518;52.408;13.060;2023-02-28T07:57:14;19.50;54.60
3017;DHT22;1518;52.408;13.060;2023-02-28T08:00:03;19.50;54.60
3017;DHT22;1518;52.408;13.060;2023-02-28T08:02:51;19.60;54.70
3017;DHT22;1518;52.408;13.060;2023-02-28T08:05:39;19.60;54.70
3017;DHT22;1518;52.408;13.060;2023-02-28T08:08:28;19.70;54.70
3017;DHT22;1518;52.408;13.060;2023-02-28T08:11:18;18.80;53.80
3017;DHT22;1518;52.408;13.060;2023-02-28T08:14:08;19.70;54.70
3017;DHT22;1518;52.408;13.060;2023-02-28T08:16:56;19.80;54.80
3017;DHT22;1518;52.408;13.060;2023-02-28T08:19:45;19.80;54.60
3017;DHT22;1518;52.408;13.060;2023-02-28T08:22:33;19.80;54.70
3017;DHT22;1518;52.408;13.060;2023-02-28T08:25:21;19.90;54.80
3017;DHT22;1518;52.408;13.060;2023-02-28T08:28:09;19.90;54.80
3017;DHT22;1518;52.408;13.060;2023-02-28T08:30:59;19.90;54.80
3017;DHT22;1518;52.408;13.060;2023-02-28T08:33:47;19.90;54.60
3017;DHT22;1518;52.408;13.060;2023-02-28T08:36:38;20.00;54.50
3017;DHT22;1518;52.408;13.060;2023-02-28T08:39:26;20.00;54.50
3017;DHT22;1518;52.408;13.060;2023-02-28T08:42:14;19.80;54.30
3017;DHT22;1518;52.408;13.060;2023-02-28T08:45:03;20.20;54.50
3017;DHT22;1518;52.408;13.060;2023-02-28T08:47:53;20.30;54.50
3017;DHT22;1518;52.408;13.060;2023-02-28T08:50:42;20.30;54.50
3017;DHT22;1518;52.408;13.060;2023-02-28T08:53:36;20.30;54.50
3017;DHT22;1518;52.408;13.060;2023-02-28T08:56:26;20.30;54.80
3017;DHT22;1518;52.408;13.060;2023-02-28T08:59:14;20.60;74.30
3017;DHT22;1518;52.408;13.060;2023-02-28T09:02:02;20.50;55.30
3017;DHT22;1518;52.408;13.060;2023-02-28T09:04:52;20.50;55.30
3017;DHT22;1518;52.408;13.060;2023-02-28T09:07:40;20.50;55.00
3017;DHT22;1518;52.408;13.060;2023-02-28T09:10:28;20.60;55.20
3017;DHT22;1518;52.408;13.060;2023-02-28T09:13:17;20.70;55.10
3017;DHT22;1518;52.408;13.060;2023-02-28T09:16:08;20.70;55.20
3017;DHT22;1518;52.408;13.060;2023-02-28T09:18:57;20.70;54.80
3017;DHT22;1518;52.408;13.060;2023-02-28T09:21:46;20.70;55.00
3017;DHT22;1518;52.408;13.060;2023-02-28T09:24:35;20.70;55.00
3017;DHT22;1518;52.408;13.060;2023-02-28T09:27:23;20.80;55.00
3017;DHT22;1518;52.408;13.060;2023-02-28T09:30:12;20.90;55.10
3017;DHT22;1518;52.408;13.060;2023-02-28T09:33:00;20.90;55.00
3017;DHT22;1518;52.408;13.060;2023-02-28T09:35:49;20.90;54.80
3017;DHT22;1518;52.408;13.060;2023-02-28T09:38:39;21.00;54.80
3017;DHT22;1518;52.408;13.060;2023-02-28T09:41:32;20.90;54.80
3017;DHT22;1518;52.408;13.060;2023-02-28T09:44:31;21.00;54.90
3017;DHT22;1518;52.408;13.060;2023-02-28T09:47:27;21.00;54.90
3017;DHT22;1518;52.408;13.060;2023-02-28T09:50:27;20.90;54.90
3017;DHT22;1518;52.408;13.060;2023-02-28T09:53:22;21.10;54.90
3017;DHT22;1518;52.408;13.060;2023-02-28T09:56:22;21.10;54.80
3017;DHT22;1518;52.408;13.060;2023-02-28T09:59:31;21.10;70.00
3017;DHT22;1518;52.408;13.060;2023-02-28T10:02:41;21.10;54.70
3017;DHT22;1518;52.408;13.060;2023-02-28T10:05:36;21.10;54.60
3017;DHT22;1518;52.408;13.060;2023-02-28T10:08:30;21.10;55.00
3017;DHT22;1518;52.408;13.060;2023-02-28T10:11:22;21.20;55.00
3017;DHT22;1518;52.408;13.060;2023-02-28T10:14:14;21.20;54.70
3017;DHT22;1518;52.408;13.060;2023-02-28T10:17:07;21.20;54.80
3017;DHT22;1518;52.408;13.060;2023-02-28T10:20:02;21.10;54.60
3017;DHT22;1518;52.408;13.060;2023-02-28T10:22:58;21.20;54.60
3017;DHT22;1518;52.408;13.060;2023-02-28T10:25:57;21.20;54.50
3017;DHT22;1518;52.408;13.060;2023-02-28T10:28:46;21.10;54.50
3017;DHT22;1518;52.408;13.060;2023-02-28T10:31:34;21.10;54.70
3017;DHT22;1518;52.408;13.060;2023-02-28T10:34:24;21.20;54.80
3017;DHT22;1518;52.408;13.060;2023-02-28T10:37:13;21.40;54.90
3017;DHT22;1518;52.408;13.060;2023-02-28T10:40:01;21.40;54.60
3017;DHT22;1518;52.408;13.060;2023-02-28T10:42:55;21.10;54.10
3017;DHT22;1518;52.408;13.060;2023-02-28T10:45:56;21.10;54.20
3017;DHT22;1518;52.408;13.060;2023-02-28T10:48:49;21.10;54.00
3017;DHT22;1518;52.408;13.060;2023-02-28T10:51:39;21.20;54.10
3017;DHT22;1518;52.408;13.060;2023-02-28T10:54:30;21.20;54.00
3017;DHT22;1518;52.408;13.060;2023-02-28T10:57:23;21.20;54.00
3017;DHT22;1518;52.408;13.060;2023-02-28T11:00:15;21.20;53.80
3017;DHT22;1518;52.408;13.060;2023-02-28T11:03:23;21.20;53.80
3017;DHT22;1518;52.408;13.060;2023-02-28T11:06:16;21.20;54.10
3017;DHT22;1518;52.408;13.060;2023-02-28T11:09:27;21.30;54.20
3017;DHT22;1518;52.408;13.060;2023-02-28T11:12:22;21.30;54.20
3017;DHT22;1518;52.408;13.060;2023-02-28T11:15:22;21.40;54.20
3017;DHT22;1518;52.408;13.060;2023-02-28T11:18:21;21.40;54.10
3017;DHT22;1518;52.408;13.060;2023-02-28T11:21:18;21.40;54.60
3017;DHT22;1518;52.408;13.060;2023-02-28T11:24:19;21.40;54.10
3017;DHT22;1518;52.408;13.060;2023-02-28T11:27:24;21.50;54.50
3017;DHT22;1518;52.408;13.060;2023-02-28T11:30:34;21.50;54.70
3017;DHT22;1518;52.408;13.060;2023-02-28T11:33:27;21.50;54.70
3017;DHT22;1518;52.408;13.060;2023-02-28T11:36:19;21.50;54.70
3017;DHT22;1518;52.408;13.060;2023-02-28T11:39:10;21.40;67.20
3017;DHT22;1518;52.408;13.060;2023-02-28T11:42:43;21.50;54.70
3017;DHT22;1518;52.408;13.060;2023-02-28T11:45:45;21.50;54.70
3017;DHT22;1518;52.408;13.060;2023-02-28T11:48:45;21.50;72.80
3017;DHT22;1518;52.408;13.060;2023-02-28T11:51:47;21.60;54.80
3017;DHT22;1518;52.408;13.060;2023-02-28T11:54:50;21.50;54.50
3017;DHT22;1518;52.408;13.060;2023-02-28T11:58:00;21.50;54.90
3017;DHT22;1518;52.408;13.060;2023-02-28T12:01:07;21.50;54.50
3017;DHT22;1518;52.408;13.060;2023-02-28T12:04:09;21.50;54.80
3017;DHT22;1518;52.408;13.060;2023-02-28T12:07:05;21.50;54.60
3017;DHT22;1518;52.408;13.060;2023-02-28T12:10:01;21.50;54.70
3017;DHT22;1518;52.408;13.060;2023-02-28T12:13:05;21.50;54.90
3017;DHT22;1518;52.408;13.060;2023-02-28T12:16:26;21.50;54.50
3017;DHT22;1518;52.408;13.060;2023-02-28T12:19:20;21.40;71.30
3017;DHT22;1518;52.408;13.060;2023-02-28T12:22:22;21.50;54.30
3017;DHT22;1518;52.408;13.060;2023-02-28T12:25:33;21.50;54.40
3017;DHT22;1518;52.408;13.060;2023-02-28T12:28:26;21.50;54.40
3017;DHT22;1518;52.408;13.060;2023-02-28T12:31:19;21.50;54.40
3017;DHT22;1518;52.408;13.060;2023-02-28T12:34:13;21.50;54.40
3017;DHT22;1518;52.408;13.060;2023-02-28T12:37:07;21.40;54.40
3017;DHT22;1518;52.408;13.060;2023-02-28T12:40:00;21.20;54.30
3017;DHT22;1518;52.408;13.060;2023-02-28T12:42:56;21.20;54.30
3017;DHT22;1518;52.408;13.060;2023-02-28T12:45:48;21.30;54.50
3017;DHT22;1518;52.408;13.060;2023-02-28T12:48:41;21.40;54.60
3017;DHT22;1518;52.408;13.060;2023-02-28T12:51:30;21.40;54.50
3017;DHT22;1518;52.408;13.060;2023-02-28T12:54:24;21.80;55.00
3017;DHT22;1518;52.408;13.060;2023-02-28T12:57:18;21.40;54.50
3017;DHT22;1518;52.408;13.060;2023-02-28T13:00:12;21.50;54.60
3017;DHT22;1518;52.408;13.060;2023-02-28T13:06:56;21.50;54.40
3017;DHT22;1518;52.408;13.060;2023-02-28T13:09:54;21.60;54.50
3017;DHT22;1518;52.408;13.060;2023-02-28T13:12:48;21.60;54.60
3017;DHT22;1518;52.408;13.060;2023-02-28T13:15:37;21.70;54.70
3017;DHT22;1518;52.408;13.060;2023-02-28T13:18:30;21.50;54.60
3017;DHT22;1518;52.408;13.060;2023-02-28T13:21:23;21.70;54.80
3017;DHT22;1518;52.408;13.060;2023-02-28T13:24:37;21.70;54.60
3017;DHT22;1518;52.408;13.060;2023-02-28T13:27:38;21.70;54.60
3017;DHT22;1518;52.408;13.060;2023-02-28T13:31:00;21.70;54.60
3017;DHT22;1518;52.408;13.060;2023-02-28T13:34:12;21.70;54.70
3017;DHT22;1518;52.408;13.060;2023-02-28T13:37:32;21.60;54.70
3017;DHT22;1518;52.408;13.060;2023-02-28T13:40:29;21.60;54.70
3017;DHT22;1518;52.408;13.060;2023-02-28T13:43:19;21.60;54.90
3017;DHT22;1518;52.408;13.060;2023-02-28T13:46:21;21.60;54.70
3017;DHT22;1518;52.408;13.060;2023-02-28T13:49:19;21.50;67.60
3017;DHT22;1518;52.408;13.060;2023-02-28T13:52:14;21.60;54.80
3017;DHT22;1518;52.408;13.060;2023-02-28T13:55:23;21.60;55.00
3017;DHT22;1518;52.408;13.060;2023-02-28T13:58:27;21.60;55.20
3017;DHT22;1518;52.408;13.060;2023-02-28T14:01:41;21.30;55.00
3017;DHT22;1518;52.408;13.060;2023-02-28T14:04:48;21.70;55.40
3017;DHT22;1518;52.408;13.060;2023-02-28T14:07:43;21.70;55.10
3017;DHT22;1518;52.408;13.060;2023-02-28T14:10:39;21.80;54.90
3017;DHT22;1518;52.408;13.060;2023-02-28T14:13:42;21.80;54.90
3017;DHT22;1518;52.408;13.060;2023-02-28T14:16:39;21.90;54.90
3017;DHT22;1518;52.408;13.060;2023-02-28T14:19:31;21.80;54.60
3017;DHT22;1518;52.408;13.060;2023-02-28T14:22:38;21.90;54.60
3017;DHT22;1518;52.408;13.060;2023-02-28T14:25:32;21.90;54.50
3017;DHT22;1518;52.408;13.060;2023-02-28T14:28:31;21.90;55.30
3017;DHT22;1518;52.408;13.060;2023-02-28T14:31:29;21.90;54.50
3017;DHT22;1518;52.408;13.060;2023-02-28T14:34:36;21.90;54.40
3017;DHT22;1518;52.408;13.060;2023-02-28T14:37:27;21.90;54.40
3017;DHT22;1518;52.408;13.060;2023-02-28T14:40:19;21.80;54.50
3017;DHT22;1518;52.408;13.060;2023-02-28T14:43:20;22.00;54.40
3017;DHT22;1518;52.408;13.060;2023-02-28T14:46:12;21.80;54.00
3017;DHT22;1518;52.408;13.060;2023-02-28T14:49:03;22.20;54.30
3017;DHT22;1518;52.408;13.060;2023-02-28T14:52:02;21.90;54.20
3017;DHT22;1518;52.408;13.060;2023-02-28T14:54:53;21.90;54.20
3017;DHT22;1518;52.408;13.060;2023-02-28T14:57:50;21.90;54.20
3017;DHT22;1518;52.408;13.060;2023-02-28T15:00:47;22.00;54.10
3017;DHT22;1518;52.408;13.060;2023-02-28T15:03:37;22.00;54.30
3017;DHT22;1518;52.408;13.060;2023-02-28T15:06:27;22.10;54.30
3017;DHT22;1518;52.408;13.060;2023-02-28T15:09:17;21.90;65.90
3017;DHT22;1518;52.408;13.060;2023-02-28T15:12:07;22.10;53.80
3017;DHT22;1518;52.408;13.060;2023-02-28T15:14:55;22.10;53.80
3017;DHT22;1518;52.408;13.060;2023-02-28T15:17:46;22.20;53.80
3017;DHT22;1518;52.408;13.060;2023-02-28T15:20:35;22.10;53.60
3017;DHT22;1518;52.408;13.060;2023-02-28T15:23:28;22.20;53.70
3017;DHT22;1518;52.408;13.060;2023-02-28T15:26:20;22.50;53.80
3017;DHT22;1518;52.408;13.060;2023-02-28T15:29:14;22.00;70.80
3017;DHT22;1518;52.408;13.060;2023-02-28T15:32:04;22.10;53.40
3017;DHT22;1518;52.408;13.060;2023-02-28T15:34:53;22.10;53.40
3017;DHT22;1518;52.408;13.060;2023-02-28T15:37:46;22.00;53.30
3017;DHT22;1518;52.408;13.060;2023-02-28T15:40:40;22.00;53.30
3017;DHT22;1518;52.408;13.060;2023-02-28T15:43:30;21.90;53.10
3017;DHT22;1518;52.408;13.060;2023-02-28T15:46:19;22.10;53.20
3017;DHT22;1518;52.408;13.060;2023-02-28T15:49:17;21.80;53.10
3017;DHT22;1518;52.408;13.060;2023-02-28T15:52:13;21.60;52.90
3017;DHT22;1518;52.408;13.060;2023-02-28T15:55:08;21.60;52.90
3017;DHT22;1518;52.408;13.060;2023-02-28T15:58:01;21.60;52.60
3017;DHT22;1518;52.408;13.060;2023-02-28T16:01:04;21.60;52.40
3017;DHT22;1518;52.408;13.060;2023-02-28T16:03:54;21.70;52.50
3017;DHT22;1518;52.408;13.060;2023-02-28T16:06:44;21.50;52.50
3017;DHT22;1518;52.408;13.060;2023-02-28T16:09:32;21.50;52.60
3017;DHT22;1518;52.408;13.060;2023-02-28T16:12:25;21.50;52.40
3017;DHT22;1518;52.408;13.060;2023-02-28T16:15:20;21.40;52.30
3017;DHT22;1518;52.408;13.060;2023-02-28T16:18:10;21.40;52.80
3017;DHT22;1518;52.408;13.060;2023-02-28T16:20:59;21.30;52.20
3017;DHT22;1518;52.408;13.060;2023-02-28T16:23:47;21.40;52.00
3017;DHT22;1518;52.408;13.060;2023-02-28T16:26:35;21.10;51.70
3017;DHT22;1518;52.408;13.060;2023-02-28T16:29:27;21.00;69.20
3017;DHT22;1518;52.408;13.060;2023-02-28T16:32:16;21.00;51.50
3017;DHT22;1518;52.408;13.060;2023-02-28T16:35:09;20.50;50.80
3017;DHT22;1518;52.408;13.060;2023-02-28T16:37:57;20.70;51.30
3017;DHT22;1518;52.408;13.060;2023-02-28T16:40:45;20.60;51.20
3017;DHT22;1518;52.408;13.060;2023-02-28T16:43:33;20.40;50.80
3017;DHT22;1518;52.408;13.060;2023-02-28T16:46:31;20.40;50.90
3017;DHT22;1518;52.408;13.060;2023-02-28T16:49:22;20.40;70.30
3017;DHT22;1518;52.408;13.060;2023-02-28T16:52:10;20.20;51.90
3017;DHT22;1518;52.408;13.060;2023-02-28T16:54:59;20.10;51.00
3017;DHT22;1518;52.408;13.060;2023-02-28T16:57:51;20.10;51.00
3017;DHT22;1518;52.408;13.060;2023-02-28T17:00:39;20.00;50.50
3017;DHT22;1518;52.408;13.060;2023-02-28T17:03:28;19.60;50.30
3017;DHT22;1518;52.408;13.060;2023-02-28T17:06:23;19.90;51.80
3017;DHT22;1518;52.408;13.060;2023-02-28T17:09:16;19.60;62.80
3017;DHT22;1518;52.408;13.060;2023-02-28T17:12:04;19.70;50.10
3017;DHT22;1518;52.408;13.060;2023-02-28T17:14:53;19.60;50.70
3017;DHT22;1518;52.408;13.060;2023-02-28T17:17:42;19.50;50.00
3017;DHT22;1518;52.408;13.060;2023-02-28T17:20:31;19.40;50.30
3017;DHT22;1518;52.408;13.060;2023-02-28T17:23:20;19.40;51.10
3017;DHT22;1518;52.408;13.060;2023-02-28T17:26:12;19.30;50.90
3017;DHT22;1518;52.408;13.060;2023-02-28T17:29:00;19.20;50.70
3017;DHT22;1518;52.408;13.060;2023-02-28T17:31:48;19.20;50.50
3017;DHT22;1518;52.408;13.060;2023-02-28T17:34:36;18.90;50.00
3017;DHT22;1518;52.408;13.060;2023-02-28T17:37:25;19.10;50.30
3017;DHT22;1518;52.408;13.060;2023-02-28T17:40:15;18.90;50.50
3017;DHT22;1518;52.408;13.060;2023-02-28T17:43:04;18.90;50.60
3017;DHT22;1518;52.408;13.060;2023-02-28T17:45:54;18.80;50.80
3017;DHT22;1518;52.408;13.060;2023-02-28T17:48:42;18.80;50.60
3017;DHT22;1518;52.408;13.060;2023-02-28T17:51:30;18.30;50.30
3017;DHT22;1518;52.408;13.060;2023-02-28T17:54:18;19.10;50.70
3017;DHT22;1518;52.408;13.060;2023-02-28T17:57:10;18.70;51.20
3017;DHT22;1518;52.408;13.060;2023-02-28T18:00:00;18.70;50.70
3017;DHT22;1518;52.408;13.060;2023-02-28T18:02:52;18.50;50.70
3017;DHT22;1518;52.408;13.060;2023-02-28T18:05:41;18.70;50.70
3017;DHT22;1518;52.408;13.060;2023-02-28T18:08:29;18.70;50.60
3017;DHT22;1518;52.408;13.060;2023-02-28T18:11:17;18.80;50.90
3017;DHT22;1518;52.408;13.060;2023-02-28T18:14:07;18.60;50.50
3017;DHT22;1518;52.408;13.060;2023-02-28T18:16:55;18.50;50.90
3017;DHT22;1518;52.408;13.060;2023-02-28T18:19:44;18.50;50.90
3017;DHT22;1518;52.408;13.060;2023-02-28T18:22:32;18.30;50.60
3017;DHT22;1518;52.408;13.060;2023-02-28T18:25:22;18.40;50.80
3017;DHT22;1518;52.408;13.060;2023-02-28T18:28:10;18.30;50.60
3017;DHT22;1518;52.408;13.060;2023-02-28T18:31:04;18.40;50.90
3017;DHT22;1518;52.408;13.060;2023-02-28T18:33:53;18.30;50.90
3017;DHT22;1518;52.408;13.060;2023-02-28T18:36:41;18.30;50.90
3017;DHT22;1518;52.408;13.060;2023-02-28T18:39:30;18.30;50.90